createdAt,value
2018-12-14T00:00:21.125Z,1015.55
2018-12-14T00:01:21.122Z,1015.56
2018-12-14T00:02:21.325Z,1015.54
2018-12-14T00:03:21.313Z,1015.57
2018-12-14T00:04:21.103Z,1015.57
2018-12-14T00:05:21.103Z,1015.59
2018-12-14T00:06:21.097Z,1015.59
2018-12-14T00:07:21.074Z,1015.60
2018-12-14T00:08:21.281Z,1015.64
2018-12-14T00:09:21.071Z,1015.60
2018-12-14T00:10:21.064Z,1015.59
2018-12-14T00:11:21.065Z,1015.59
2018-12-14T00:12:21.252Z,1015.62
2018-12-14T00:13:21.047Z,1015.62
2018-12-14T00:14:21.039Z,1015.61
2018-12-14T00:15:21.090Z,1015.64
2018-12-14T00:16:21.239Z,1015.64
2018-12-14T00:17:21.224Z,1015.61
2018-12-14T00:18:21.016Z,1015.62
2018-12-14T00:19:21.009Z,1015.55
2018-12-14T00:20:21.001Z,1015.53
2018-12-14T00:21:20.994Z,1015.59
2018-12-14T00:22:20.984Z,1015.56
2018-12-14T00:23:20.996Z,1015.57
2018-12-14T00:24:21.185Z,1015.57
2018-12-14T00:25:20.989Z,1015.55
2018-12-14T00:26:20.972Z,1015.55
2018-12-14T00:27:20.958Z,1015.53
2018-12-14T00:28:20.965Z,1015.54
2018-12-14T00:29:20.940Z,1015.55
2018-12-14T00:30:20.944Z,1015.54
2018-12-14T00:31:20.934Z,1015.52
2018-12-14T00:32:20.944Z,1015.50
2018-12-14T00:33:20.940Z,1015.54
2018-12-14T00:34:20.924Z,1015.53
2018-12-14T00:35:21.122Z,1015.53
2018-12-14T00:36:21.108Z,1015.54
2018-12-14T00:37:21.124Z,1015.50
2018-12-14T00:38:20.915Z,1015.56
2018-12-14T00:39:20.880Z,1015.52
2018-12-14T00:40:20.881Z,1015.53
2018-12-14T00:41:20.875Z,1015.56
2018-12-14T00:42:20.877Z,1015.55
2018-12-14T00:43:21.068Z,1015.56
2018-12-14T00:44:20.859Z,1015.57
2018-12-14T00:45:20.857Z,1015.61
2018-12-14T00:46:20.839Z,1015.60
2018-12-14T00:47:20.843Z,1015.61
2018-12-14T00:48:21.039Z,1015.60
2018-12-14T00:49:20.821Z,1015.62
2018-12-14T00:50:20.823Z,1015.60
2018-12-14T00:51:20.820Z,1015.61
2018-12-14T00:52:20.818Z,1015.63
2018-12-14T00:53:21.032Z,1015.66
2018-12-14T00:54:20.804Z,1015.66
2018-12-14T00:55:20.993Z,1015.65
2018-12-14T00:56:20.796Z,1015.66
2018-12-14T00:57:20.774Z,1015.63
2018-12-14T00:58:20.776Z,1015.59
2018-12-14T00:59:20.762Z,1015.57
2018-12-14T01:00:20.764Z,1015.52
2018-12-14T01:01:20.761Z,1015.55
2018-12-14T01:02:20.953Z,1015.56
2018-12-14T01:03:20.739Z,1015.58
2018-12-14T01:04:20.761Z,1015.59
2018-12-14T01:05:20.733Z,1015.58
2018-12-14T01:06:20.726Z,1015.58
2018-12-14T01:07:20.720Z,1015.56
2018-12-14T01:08:20.714Z,1015.59
2018-12-14T01:09:20.713Z,1015.60
2018-12-14T01:10:20.923Z,1015.61
2018-12-14T01:11:20.698Z,1015.60
2018-12-14T01:12:20.700Z,1015.60
2018-12-14T01:13:20.710Z,1015.59
2018-12-14T01:14:20.691Z,1015.61
2018-12-14T01:15:20.683Z,1015.63
2018-12-14T01:16:20.670Z,1015.65
2018-12-14T01:17:20.658Z,1015.65
2018-12-14T01:18:20.668Z,1015.61
2018-12-14T01:19:20.661Z,1015.67
2018-12-14T01:20:20.653Z,1015.70
2018-12-14T01:21:20.633Z,1015.66
2018-12-14T01:22:20.643Z,1015.67
2018-12-14T01:23:20.631Z,1015.69
2018-12-14T01:24:20.641Z,1015.70
2018-12-14T01:25:20.611Z,1015.70
2018-12-14T01:26:20.602Z,1015.73
2018-12-14T01:27:20.611Z,1015.71
2018-12-14T01:28:20.608Z,1015.70
2018-12-14T01:29:20.804Z,1015.68
2018-12-14T01:30:20.582Z,1015.66
2018-12-14T01:31:20.603Z,1015.67
2018-12-14T01:32:20.583Z,1015.70
2018-12-14T01:33:20.568Z,1015.65
2018-12-14T01:34:20.780Z,1015.68
2018-12-14T01:35:20.764Z,1015.65
2018-12-14T01:36:20.546Z,1015.68
2018-12-14T01:37:20.539Z,1015.66
2018-12-14T01:38:20.533Z,1015.68
2018-12-14T01:39:20.541Z,1015.66
2018-12-14T01:40:20.519Z,1015.66
2018-12-14T01:41:20.520Z,1015.66
2018-12-14T01:42:20.505Z,1015.69
2018-12-14T01:43:20.507Z,1015.73
2018-12-14T01:44:20.504Z,1015.72
2018-12-14T01:45:20.495Z,1015.72
2018-12-14T01:46:20.490Z,1015.70
2018-12-14T01:47:20.489Z,1015.75
2018-12-14T01:48:20.489Z,1015.78
2018-12-14T01:49:20.470Z,1015.75
2018-12-14T01:50:20.468Z,1015.79
2018-12-14T01:51:20.656Z,1015.81
2018-12-14T01:52:20.443Z,1015.75
2018-12-14T01:53:20.448Z,1015.75
2018-12-14T01:54:20.653Z,1015.77
2018-12-14T01:55:20.453Z,1015.77
2018-12-14T01:56:20.420Z,1015.80
2018-12-14T01:57:20.421Z,1015.78
2018-12-14T01:58:20.411Z,1015.80
2018-12-14T01:59:20.409Z,1015.80
2018-12-14T02:00:20.409Z,1015.80
2018-12-14T02:01:20.408Z,1015.76
2018-12-14T02:02:20.383Z,1015.76
2018-12-14T02:03:20.392Z,1015.73
2018-12-14T02:04:20.371Z,1015.73
2018-12-14T02:05:20.381Z,1015.70
2018-12-14T02:06:20.373Z,1015.69
2018-12-14T02:07:20.369Z,1015.71
2018-12-14T02:08:20.349Z,1015.71
2018-12-14T02:09:20.351Z,1015.72
2018-12-14T02:10:20.367Z,1015.75
2018-12-14T02:11:20.542Z,1015.72
2018-12-14T02:12:20.332Z,1015.71
2018-12-14T02:13:20.319Z,1015.73
2018-12-14T02:14:20.314Z,1015.72
2018-12-14T02:15:20.308Z,1015.71
2018-12-14T02:16:20.329Z,1015.68
2018-12-14T02:17:20.498Z,1015.70
2018-12-14T02:18:20.289Z,1015.66
2018-12-14T02:19:20.310Z,1015.63
2018-12-14T02:20:20.279Z,1015.64
2018-12-14T02:21:20.276Z,1015.62
2018-12-14T02:22:20.282Z,1015.62
2018-12-14T02:23:20.266Z,1015.64
2018-12-14T02:24:20.255Z,1015.62
2018-12-14T02:25:20.250Z,1015.62
2018-12-14T02:26:20.454Z,1015.66
2018-12-14T02:27:20.239Z,1015.67
2018-12-14T02:28:20.232Z,1015.65
2018-12-14T02:29:20.239Z,1015.64
2018-12-14T02:30:20.234Z,1015.66
2018-12-14T02:31:20.228Z,1015.64
2018-12-14T02:32:20.233Z,1015.65
2018-12-14T02:33:20.234Z,1015.62
2018-12-14T02:34:20.192Z,1015.62
2018-12-14T02:35:20.204Z,1015.61
2018-12-14T02:36:20.183Z,1015.60
2018-12-14T02:37:20.191Z,1015.59
2018-12-14T02:38:20.184Z,1015.59
2018-12-14T02:39:20.370Z,1015.61
2018-12-14T02:40:20.359Z,1015.64
2018-12-14T02:41:20.365Z,1015.61
2018-12-14T02:42:20.165Z,1015.61
2018-12-14T02:43:20.176Z,1015.63
2018-12-14T02:44:20.352Z,1015.62
2018-12-14T02:45:20.147Z,1015.70
2018-12-14T02:46:20.134Z,1015.65
2018-12-14T02:47:20.123Z,1015.65
2018-12-14T02:48:20.111Z,1015.65
2018-12-14T02:49:20.123Z,1015.62
2018-12-14T02:50:20.115Z,1015.62
2018-12-14T02:51:20.111Z,1015.63
2018-12-14T02:52:20.302Z,1015.61
2018-12-14T02:53:20.094Z,1015.61
2018-12-14T02:54:20.076Z,1015.60
2018-12-14T02:55:20.269Z,1015.57
2018-12-14T02:56:20.274Z,1015.60
2018-12-14T02:57:20.059Z,1015.57
2018-12-14T02:58:20.050Z,1015.59
2018-12-14T02:59:20.048Z,1015.57
2018-12-14T03:00:20.066Z,1015.55
2018-12-14T03:01:20.041Z,1015.59
2018-12-14T03:02:20.236Z,1015.59
2018-12-14T03:03:20.023Z,1015.54
2018-12-14T03:04:20.016Z,1015.54
2018-12-14T03:05:20.017Z,1015.54
2018-12-14T03:06:20.015Z,1015.58
2018-12-14T03:07:20.014Z,1015.54
2018-12-14T03:08:20.215Z,1015.58
2018-12-14T03:09:20.189Z,1015.56
2018-12-14T03:10:19.989Z,1015.57
2018-12-14T03:11:19.983Z,1015.54
2018-12-14T03:12:26.536Z,1015.52
2018-12-14T03:13:19.972Z,1015.52
2018-12-14T03:14:19.962Z,1015.55
2018-12-14T03:15:19.972Z,1015.54
2018-12-14T03:16:19.964Z,1015.56
2018-12-14T03:17:19.936Z,1015.57
2018-12-14T03:18:19.929Z,1015.56
2018-12-14T03:19:19.937Z,1015.57
2018-12-14T03:20:19.920Z,1015.62
2018-12-14T03:21:19.933Z,1015.60
2018-12-14T03:22:20.118Z,1015.60
2018-12-14T03:23:20.126Z,1015.56
2018-12-14T03:24:19.916Z,1015.58
2018-12-14T03:25:19.894Z,1015.63
2018-12-14T03:26:19.885Z,1015.55
2018-12-14T03:27:19.896Z,1015.56
2018-12-14T03:28:19.889Z,1015.58
2018-12-14T03:29:20.076Z,1015.59
2018-12-14T03:30:19.875Z,1015.56
2018-12-14T03:31:19.866Z,1015.51
2018-12-14T03:32:19.857Z,1015.55
2018-12-14T03:33:19.843Z,1015.53
2018-12-14T03:34:19.843Z,1015.55
2018-12-14T03:35:19.859Z,1015.54
2018-12-14T03:36:20.045Z,1015.55
2018-12-14T03:37:19.837Z,1015.57
2018-12-14T03:38:20.039Z,1015.52
2018-12-14T03:39:19.807Z,1015.53
2018-12-14T03:40:19.819Z,1015.51
2018-12-14T03:41:19.812Z,1015.51
2018-12-14T03:42:20.003Z,1015.49
2018-12-14T03:43:19.792Z,1015.49
2018-12-14T03:44:19.785Z,1015.49
2018-12-14T03:45:19.986Z,1015.49
2018-12-14T03:46:19.770Z,1015.51
2018-12-14T03:47:19.768Z,1015.47
2018-12-14T03:48:19.753Z,1015.49
2018-12-14T03:49:19.974Z,1015.46
2018-12-14T03:50:19.960Z,1015.49
2018-12-14T03:51:19.753Z,1015.44
2018-12-14T03:52:19.749Z,1015.50
2018-12-14T03:53:19.757Z,1015.44
2018-12-14T03:54:19.726Z,1015.45
2018-12-14T03:55:19.722Z,1015.47
2018-12-14T03:56:19.708Z,1015.46
2018-12-14T03:57:19.698Z,1015.45
2018-12-14T03:58:19.900Z,1015.44
2018-12-14T03:59:19.691Z,1015.47
2018-12-14T04:00:19.696Z,1015.45
2018-12-14T04:01:19.884Z,1015.50
2018-12-14T04:02:19.888Z,1015.48
2018-12-14T04:03:19.675Z,1015.47
2018-12-14T04:04:19.686Z,1015.45
2018-12-14T04:05:19.654Z,1015.47
2018-12-14T04:06:19.673Z,1015.51
2018-12-14T04:07:19.652Z,1015.49
2018-12-14T04:08:19.639Z,1015.52
2018-12-14T04:09:19.645Z,1015.55
2018-12-14T04:10:19.634Z,1015.56
2018-12-14T04:11:19.631Z,1015.57
2018-12-14T04:12:19.626Z,1015.59
2018-12-14T04:13:19.621Z,1015.60
2018-12-14T04:14:19.619Z,1015.62
2018-12-14T04:15:19.596Z,1015.64
2018-12-14T04:16:19.800Z,1015.63
2018-12-14T04:17:19.579Z,1015.64
2018-12-14T04:18:19.582Z,1015.63
2018-12-14T04:19:19.576Z,1015.65
2018-12-14T04:20:19.768Z,1015.64
2018-12-14T04:21:19.556Z,1015.63
2018-12-14T04:22:19.570Z,1015.70
2018-12-14T04:23:19.549Z,1015.64
2018-12-14T04:24:19.541Z,1015.65
2018-12-14T04:25:19.539Z,1015.63
2018-12-14T04:26:19.540Z,1015.59
2018-12-14T04:27:19.521Z,1015.65
2018-12-14T04:28:19.517Z,1015.64
2018-12-14T04:29:19.538Z,1015.66
2018-12-14T04:30:19.704Z,1015.61
2018-12-14T04:31:19.504Z,1015.61
2018-12-14T04:32:19.701Z,1015.65
2018-12-14T04:33:19.499Z,1015.65
2018-12-14T04:34:19.683Z,1015.65
2018-12-14T04:35:19.698Z,1015.66
2018-12-14T04:36:19.474Z,1015.62
2018-12-14T04:37:19.492Z,1015.70
2018-12-14T04:38:19.468Z,1015.64
2018-12-14T04:39:19.476Z,1015.67
2018-12-14T04:40:19.475Z,1015.70
2018-12-14T04:41:19.435Z,1015.69
2018-12-14T04:42:19.640Z,1015.66
2018-12-14T04:43:19.641Z,1015.63
2018-12-14T04:44:19.641Z,1015.68
2018-12-14T04:45:19.421Z,1015.69
2018-12-14T04:46:19.406Z,1015.68
2018-12-14T04:47:19.408Z,1015.71
2018-12-14T04:48:19.624Z,1015.72
2018-12-14T04:49:19.610Z,1015.71
2018-12-14T04:50:19.400Z,1015.73
2018-12-14T04:51:19.388Z,1015.71
2018-12-14T04:52:19.382Z,1015.74
2018-12-14T04:53:19.383Z,1015.76
2018-12-14T04:54:19.394Z,1015.75
2018-12-14T04:55:19.361Z,1015.74
2018-12-14T04:56:19.380Z,1015.70
2018-12-14T04:57:19.552Z,1015.74
2018-12-14T04:58:19.340Z,1015.77
2018-12-14T04:59:19.549Z,1015.74
2018-12-14T05:00:19.350Z,1015.73
2018-12-14T05:01:19.539Z,1015.75
2018-12-14T05:02:19.333Z,1015.70
2018-12-14T05:03:19.321Z,1015.73
2018-12-14T05:04:19.325Z,1015.72
2018-12-14T05:05:19.311Z,1015.69
2018-12-14T05:06:19.296Z,1015.71
2018-12-14T05:07:19.294Z,1015.71
2018-12-14T05:08:19.278Z,1015.71
2018-12-14T05:09:19.291Z,1015.72
2018-12-14T05:10:19.272Z,1015.71
2018-12-14T05:11:19.298Z,1015.69
2018-12-14T05:12:19.294Z,1015.67
2018-12-14T05:13:19.254Z,1015.70
2018-12-14T05:14:19.460Z,1015.66
2018-12-14T05:15:19.247Z,1015.67
2018-12-14T05:16:19.243Z,1015.69
2018-12-14T05:17:19.239Z,1015.66
2018-12-14T05:18:19.227Z,1015.76
2018-12-14T05:19:19.218Z,1015.73
2018-12-14T05:20:19.263Z,1015.72
2018-12-14T05:21:19.206Z,1015.73
2018-12-14T05:22:19.198Z,1015.72
2018-12-14T05:23:19.196Z,1015.74
2018-12-14T05:24:19.398Z,1015.74
2018-12-14T05:25:19.197Z,1015.78
2018-12-14T05:26:19.176Z,1015.79
2018-12-14T05:27:19.169Z,1015.77
2018-12-14T05:28:19.169Z,1015.78
2018-12-14T05:29:19.166Z,1015.79
2018-12-14T05:30:19.156Z,1015.79
2018-12-14T05:31:19.158Z,1015.84
2018-12-14T05:32:19.151Z,1015.81
2018-12-14T05:33:19.337Z,1015.79
2018-12-14T05:34:19.129Z,1015.78
2018-12-14T05:35:19.132Z,1015.79
2018-12-14T05:36:19.123Z,1015.80
2018-12-14T05:37:19.118Z,1015.83
2018-12-14T05:38:19.119Z,1015.82
2018-12-14T05:39:19.108Z,1015.85
2018-12-14T05:40:19.093Z,1015.78
2018-12-14T05:41:19.090Z,1015.78
2018-12-14T05:42:19.288Z,1015.81
2018-12-14T05:43:19.088Z,1015.80
2018-12-14T05:44:19.291Z,1015.81
2018-12-14T05:45:19.097Z,1015.76
2018-12-14T05:46:19.081Z,1015.78
2018-12-14T05:47:19.084Z,1015.76
2018-12-14T05:48:19.056Z,1015.81
2018-12-14T05:49:19.248Z,1015.77
2018-12-14T05:50:19.069Z,1015.80
2018-12-14T05:51:19.065Z,1015.75
2018-12-14T05:52:19.230Z,1015.78
2018-12-14T05:53:19.026Z,1015.77
2018-12-14T05:54:19.017Z,1015.77
2018-12-14T05:55:19.010Z,1015.79
2018-12-14T05:56:19.216Z,1015.80
2018-12-14T05:57:19.003Z,1015.83
2018-12-14T05:58:19.002Z,1015.84
2018-12-14T05:59:18.982Z,1015.79
2018-12-14T06:00:18.976Z,1015.79
2018-12-14T06:01:18.999Z,1015.82
2018-12-14T06:02:18.996Z,1015.77
2018-12-14T06:03:18.982Z,1015.81
2018-12-14T06:04:18.984Z,1015.79
2018-12-14T06:05:18.947Z,1015.82
2018-12-14T06:06:18.946Z,1015.80
2018-12-14T06:07:18.948Z,1015.85
2018-12-14T06:08:18.931Z,1015.86
2018-12-14T06:09:18.927Z,1015.86
2018-12-14T06:10:18.922Z,1015.85
2018-12-14T06:11:18.916Z,1015.89
2018-12-14T06:12:18.910Z,1015.93
2018-12-14T06:13:18.903Z,1015.93
2018-12-14T06:14:18.899Z,1015.92
2018-12-14T06:15:19.105Z,1015.94
2018-12-14T06:16:18.882Z,1015.94
2018-12-14T06:17:18.871Z,1015.94
2018-12-14T06:18:18.870Z,1015.95
2018-12-14T06:19:18.863Z,1015.96
2018-12-14T06:20:18.869Z,1015.94
2018-12-14T06:21:19.065Z,1015.92
2018-12-14T06:22:19.045Z,1015.98
2018-12-14T06:23:18.856Z,1015.98
2018-12-14T06:24:19.060Z,1015.95
2018-12-14T06:25:18.853Z,1015.98
2018-12-14T06:26:18.820Z,1015.98
2018-12-14T06:27:18.815Z,1015.99
2018-12-14T06:28:18.820Z,1016.02
2018-12-14T06:29:19.003Z,1016.03
2018-12-14T06:30:19.022Z,1016.02
2018-12-14T06:31:18.794Z,1016.03
2018-12-14T06:32:18.796Z,1016.05
2018-12-14T06:33:18.807Z,1016.07
2018-12-14T06:34:18.780Z,1016.02
2018-12-14T06:35:18.767Z,1015.99
2018-12-14T06:36:18.807Z,1016.04
2018-12-14T06:37:18.777Z,1016.06
2018-12-14T06:38:18.753Z,1016.07
2018-12-14T06:39:18.767Z,1016.09
2018-12-14T06:40:18.768Z,1016.10
2018-12-14T06:41:18.767Z,1016.08
2018-12-14T06:42:18.789Z,1016.10
2018-12-14T06:43:18.722Z,1016.09
2018-12-14T06:44:18.920Z,1016.09
2018-12-14T06:45:18.716Z,1016.08
2018-12-14T06:46:18.712Z,1016.11
2018-12-14T06:47:18.710Z,1016.10
2018-12-14T06:48:18.716Z,1016.09
2018-12-14T06:49:18.886Z,1016.09
2018-12-14T06:50:18.681Z,1016.11
2018-12-14T06:51:18.679Z,1016.09
2018-12-14T06:52:18.868Z,1016.13
2018-12-14T06:53:18.658Z,1016.12
2018-12-14T06:54:18.654Z,1016.11
2018-12-14T06:55:18.663Z,1016.14
2018-12-14T06:57:18.642Z,1016.16
2018-12-14T06:58:18.835Z,1016.19
2018-12-14T06:59:18.622Z,1016.18
2018-12-14T07:00:18.650Z,1016.21
2018-12-14T07:01:18.653Z,1016.26
2018-12-14T07:02:18.624Z,1016.22
2018-12-14T07:03:18.611Z,1016.26
2018-12-14T07:04:18.609Z,1016.24
2018-12-14T07:05:18.791Z,1016.28
2018-12-14T07:06:18.595Z,1016.26
2018-12-14T07:07:18.591Z,1016.30
2018-12-14T07:08:18.567Z,1016.32
2018-12-14T07:09:18.565Z,1016.34
2018-12-14T07:10:18.556Z,1016.32
2018-12-14T07:11:18.548Z,1016.38
2018-12-14T07:12:18.543Z,1016.38
2018-12-14T07:13:21.922Z,1016.36
2018-12-14T07:14:18.532Z,1016.37
2018-12-14T07:15:18.534Z,1016.37
2018-12-14T07:16:18.742Z,1016.36
2018-12-14T07:17:18.512Z,1016.41
2018-12-14T07:18:18.505Z,1016.39
2018-12-14T07:19:18.507Z,1016.44
2018-12-14T07:20:18.496Z,1016.45
2018-12-14T07:21:18.492Z,1016.45
2018-12-14T07:22:18.484Z,1016.49
2018-12-14T07:23:18.478Z,1016.50
2018-12-14T07:24:18.681Z,1016.52
2018-12-14T07:25:18.473Z,1016.54
2018-12-14T07:26:18.466Z,1016.53
2018-12-14T07:27:18.462Z,1016.50
2018-12-14T07:28:18.462Z,1016.55
2018-12-14T07:29:18.649Z,1016.58
2018-12-14T07:30:18.432Z,1016.60
2018-12-14T07:31:18.429Z,1016.63
2018-12-14T07:32:18.430Z,1016.63
2018-12-14T07:33:18.425Z,1016.64
2018-12-14T07:34:18.416Z,1016.58
2018-12-14T07:35:18.404Z,1016.62
2018-12-14T07:36:18.608Z,1016.62
2018-12-14T07:37:18.392Z,1016.60
2018-12-14T07:38:18.390Z,1016.62
2018-12-14T07:39:18.389Z,1016.63
2018-12-14T07:40:18.389Z,1016.62
2018-12-14T07:41:18.383Z,1016.63
2018-12-14T07:42:18.363Z,1016.65
2018-12-14T07:43:18.360Z,1016.69
2018-12-14T07:44:18.371Z,1016.70
2018-12-14T07:45:18.553Z,1016.71
2018-12-14T07:46:18.554Z,1016.66
2018-12-14T07:47:18.341Z,1016.71
2018-12-14T07:48:18.351Z,1016.73
2018-12-14T07:49:18.321Z,1016.69
2018-12-14T07:50:18.318Z,1016.73
2018-12-14T07:51:18.311Z,1016.73
2018-12-14T07:52:18.308Z,1016.72
2018-12-14T07:53:18.305Z,1016.75
2018-12-14T07:54:18.508Z,1016.79
2018-12-14T07:55:18.495Z,1016.83
2018-12-14T07:56:18.511Z,1016.84
2018-12-14T07:57:18.489Z,1016.83
2018-12-14T07:58:18.269Z,1016.85
2018-12-14T07:59:18.267Z,1016.87
2018-12-14T08:00:18.258Z,1016.88
2018-12-14T08:01:18.280Z,1016.88
2018-12-14T08:02:18.259Z,1016.89
2018-12-14T08:03:18.444Z,1016.90
2018-12-14T08:04:18.232Z,1016.87
2018-12-14T08:05:18.243Z,1016.91
2018-12-14T08:06:18.238Z,1016.91
2018-12-14T08:07:18.427Z,1016.92
2018-12-14T08:08:18.238Z,1016.91
2018-12-14T08:09:18.204Z,1016.93
2018-12-14T08:10:18.400Z,1016.93
2018-12-14T08:11:18.201Z,1016.97
2018-12-14T08:12:18.192Z,1016.98
2018-12-14T08:13:19.465Z,1016.92
2018-12-14T08:14:18.188Z,1016.95
2018-12-14T08:15:18.167Z,1016.96
2018-12-14T08:16:18.163Z,1016.97
2018-12-14T08:17:18.376Z,1016.97
2018-12-14T08:18:18.365Z,1017.02
2018-12-14T08:19:18.362Z,1017.01
2018-12-14T08:20:18.143Z,1016.99
2018-12-14T08:21:18.137Z,1017.00
2018-12-14T08:22:18.145Z,1016.99
2018-12-14T08:23:18.132Z,1016.99
2018-12-14T08:24:18.169Z,1017.01
2018-12-14T08:25:18.114Z,1017.02
2018-12-14T08:26:18.111Z,1017.00
2018-12-14T08:27:18.107Z,1017.03
2018-12-14T08:28:18.102Z,1016.99
2018-12-14T08:29:18.088Z,1017.01
2018-12-14T08:30:18.305Z,1017.03
2018-12-14T08:31:18.080Z,1017.06
2018-12-14T08:32:18.067Z,1017.05
2018-12-14T08:33:18.067Z,1017.03
2018-12-14T08:34:18.066Z,1017.08
2018-12-14T08:35:18.056Z,1017.05
2018-12-14T08:36:18.042Z,1017.05
2018-12-14T08:37:18.049Z,1017.08
2018-12-14T08:38:18.038Z,1017.10
2018-12-14T08:39:18.032Z,1017.07
2018-12-14T08:40:18.058Z,1017.07
2018-12-14T08:41:18.018Z,1017.12
2018-12-14T08:42:18.213Z,1017.16
2018-12-14T08:43:18.005Z,1017.16
2018-12-14T08:44:18.205Z,1017.20
2018-12-14T08:45:18.000Z,1017.19
2018-12-14T08:46:17.989Z,1017.15
2018-12-14T08:47:18.013Z,1017.19
2018-12-14T08:48:18.007Z,1017.21
2018-12-14T08:49:18.174Z,1017.20
2018-12-14T08:50:17.962Z,1017.24
2018-12-14T08:51:17.950Z,1017.26
2018-12-14T08:52:18.001Z,1017.27
2018-12-14T08:53:18.143Z,1017.24
2018-12-14T08:54:17.940Z,1017.22
2018-12-14T08:55:17.956Z,1017.24
2018-12-14T08:56:17.926Z,1017.24
2018-12-14T08:57:17.925Z,1017.25
2018-12-14T08:58:17.911Z,1017.26
2018-12-14T08:59:17.903Z,1017.24
2018-12-14T09:00:17.902Z,1017.31
2018-12-14T09:01:17.894Z,1017.27
2018-12-14T09:02:17.886Z,1017.26
2018-12-14T09:03:17.884Z,1017.29
2018-12-14T09:04:17.878Z,1017.33
2018-12-14T09:05:17.874Z,1017.35
2018-12-14T09:06:17.867Z,1017.38
2018-12-14T09:07:24.386Z,1017.37
2018-12-14T09:08:17.851Z,1017.37
2018-12-14T09:09:17.878Z,1017.37
2018-12-14T09:10:17.840Z,1017.41
2018-12-14T09:11:17.850Z,1017.45
2018-12-14T09:12:17.840Z,1017.45
2018-12-14T09:13:17.816Z,1017.44
2018-12-14T09:14:17.814Z,1017.45
2018-12-14T09:15:18.022Z,1017.51
2018-12-14T09:16:17.820Z,1017.51
2018-12-14T09:17:17.802Z,1017.49
2018-12-14T09:18:17.804Z,1017.51
2018-12-14T09:19:17.788Z,1017.56
2018-12-14T09:20:17.783Z,1017.54
2018-12-14T09:21:17.782Z,1017.55
2018-12-14T09:22:17.774Z,1017.57
2018-12-14T09:23:17.763Z,1017.56
2018-12-14T09:24:17.755Z,1017.58
2018-12-14T09:25:17.775Z,1017.55
2018-12-14T09:26:17.765Z,1017.55
2018-12-14T09:27:17.751Z,1017.55
2018-12-14T09:28:17.743Z,1017.60
2018-12-14T09:29:17.732Z,1017.57
2018-12-14T09:30:17.734Z,1017.59
2018-12-14T09:31:17.725Z,1017.60
2018-12-14T09:32:17.724Z,1017.62
2018-12-14T09:33:17.730Z,1017.59
2018-12-14T09:34:17.724Z,1017.60
2018-12-14T09:35:17.701Z,1017.62
2018-12-14T09:36:17.698Z,1017.62
2018-12-14T09:37:17.678Z,1017.60
2018-12-14T09:38:17.680Z,1017.61
2018-12-14T09:39:17.667Z,1017.62
2018-12-14T09:40:17.677Z,1017.60
2018-12-14T09:41:17.653Z,1017.61
2018-12-14T09:42:17.691Z,1017.62
2018-12-14T09:43:17.675Z,1017.56
2018-12-14T09:44:17.641Z,1017.60
2018-12-14T09:45:17.688Z,1017.57
2018-12-14T09:46:17.644Z,1017.59
2018-12-14T09:47:17.626Z,1017.55
2018-12-14T09:48:17.627Z,1017.56
2018-12-14T09:49:17.619Z,1017.58
2018-12-14T09:50:17.605Z,1017.58
2018-12-14T09:51:17.600Z,1017.56
2018-12-14T09:52:17.672Z,1017.62
2018-12-14T09:53:17.617Z,1017.59
2018-12-14T09:54:17.585Z,1017.59
2018-12-14T09:55:17.573Z,1017.57
2018-12-14T09:56:17.792Z,1017.58
2018-12-14T09:57:17.564Z,1017.55
2018-12-14T09:58:17.571Z,1017.54
2018-12-14T09:59:17.552Z,1017.57
2018-12-14T10:00:17.544Z,1017.58
2018-12-14T10:01:17.554Z,1017.61
2018-12-14T10:02:17.538Z,1017.60
2018-12-14T10:03:17.528Z,1017.60
2018-12-14T10:04:17.521Z,1017.57
2018-12-14T10:05:17.518Z,1017.58
2018-12-14T10:06:17.511Z,1017.60
2018-12-14T10:07:17.519Z,1017.57
2018-12-14T10:08:17.497Z,1017.60
2018-12-14T10:09:17.508Z,1017.57
2018-12-14T10:10:17.502Z,1017.56
2018-12-14T10:11:17.487Z,1017.55
2018-12-14T10:12:17.477Z,1017.55
2018-12-14T10:13:17.466Z,1017.55
2018-12-14T10:14:17.467Z,1017.55
2018-12-14T10:15:17.469Z,1017.48
2018-12-14T10:16:17.478Z,1017.49
2018-12-14T10:17:17.458Z,1017.50
2018-12-14T10:18:17.652Z,1017.51
2018-12-14T10:19:17.456Z,1017.49
2018-12-14T10:20:17.429Z,1017.48
2018-12-14T10:21:17.440Z,1017.47
2018-12-14T10:22:17.431Z,1017.49
2018-12-14T10:23:17.431Z,1017.49
2018-12-14T10:24:17.621Z,1017.48
2018-12-14T10:25:17.408Z,1017.44
2018-12-14T10:26:17.609Z,1017.47
2018-12-14T10:27:17.395Z,1017.48
2018-12-14T10:28:17.404Z,1017.43
2018-12-14T10:29:17.387Z,1017.47
2018-12-14T10:30:17.380Z,1017.46
2018-12-14T10:31:17.384Z,1017.47
2018-12-14T10:32:17.367Z,1017.45
2018-12-14T10:33:17.370Z,1017.44
2018-12-14T10:34:17.378Z,1017.43
2018-12-14T10:35:17.345Z,1017.43
2018-12-14T10:36:17.334Z,1017.44
2018-12-14T10:37:17.362Z,1017.41
2018-12-14T10:38:17.330Z,1017.43
2018-12-14T10:39:17.321Z,1017.40
2018-12-14T10:40:17.521Z,1017.37
2018-12-14T10:41:17.319Z,1017.36
2018-12-14T10:42:17.306Z,1017.36
2018-12-14T10:43:17.306Z,1017.37
2018-12-14T10:44:17.507Z,1017.40
2018-12-14T10:45:17.345Z,1017.43
2018-12-14T10:46:17.284Z,1017.38
2018-12-14T10:47:17.281Z,1017.34
2018-12-14T10:48:17.281Z,1017.33
2018-12-14T10:49:17.273Z,1017.38
2018-12-14T10:50:17.467Z,1017.36
2018-12-14T10:51:17.259Z,1017.30
2018-12-14T10:52:17.266Z,1017.26
2018-12-14T10:53:17.246Z,1017.31
2018-12-14T10:54:17.234Z,1017.27
2018-12-14T10:55:17.235Z,1017.26
2018-12-14T10:56:17.228Z,1017.28
2018-12-14T10:57:17.244Z,1017.27
2018-12-14T10:58:17.210Z,1017.27
2018-12-14T10:59:17.214Z,1017.24
2018-12-14T11:00:17.220Z,1017.25
2018-12-14T11:01:17.197Z,1017.24
2018-12-14T11:02:17.220Z,1017.26
2018-12-14T11:03:17.183Z,1017.25
2018-12-14T11:04:17.195Z,1017.23
2018-12-14T11:05:17.186Z,1017.23
2018-12-14T11:06:17.183Z,1017.22
2018-12-14T11:07:17.194Z,1017.21
2018-12-14T11:08:17.163Z,1017.22
2018-12-14T11:09:17.164Z,1017.23
2018-12-14T11:10:17.165Z,1017.18
2018-12-14T11:11:17.150Z,1017.16
2018-12-14T11:12:17.148Z,1017.18
2018-12-14T11:13:17.144Z,1017.19
2018-12-14T11:14:17.128Z,1017.19
2018-12-14T11:15:17.114Z,1017.20
2018-12-14T11:16:17.112Z,1017.16
2018-12-14T11:17:17.113Z,1017.16
2018-12-14T11:18:17.303Z,1017.14
2018-12-14T11:19:17.099Z,1017.14
2018-12-14T11:20:17.101Z,1017.11
2018-12-14T11:21:17.512Z,1017.12
2018-12-14T11:22:17.098Z,1017.15
2018-12-14T11:23:17.069Z,1017.11
2018-12-14T11:24:17.070Z,1017.12
2018-12-14T11:25:17.065Z,1017.11
2018-12-14T11:26:17.069Z,1017.11
2018-12-14T11:27:17.053Z,1017.17
2018-12-14T11:28:17.045Z,1017.19
2018-12-14T11:29:17.039Z,1017.16
2018-12-14T11:30:17.034Z,1017.22
2018-12-14T11:31:17.033Z,1017.18
2018-12-14T11:32:17.022Z,1017.23
2018-12-14T11:33:17.021Z,1017.22
2018-12-14T11:34:17.034Z,1017.21
2018-12-14T11:35:17.015Z,1017.22
2018-12-14T11:36:17.204Z,1017.21
2018-12-14T11:37:17.002Z,1017.23
2018-12-14T11:38:17.008Z,1017.23
2018-12-14T11:39:16.985Z,1017.22
2018-12-14T11:40:16.991Z,1017.25
2018-12-14T11:41:18.592Z,1017.28
2018-12-14T11:42:16.966Z,1017.25
2018-12-14T11:43:16.961Z,1017.27
2018-12-14T11:44:20.723Z,1017.27
2018-12-14T11:45:17.144Z,1017.25
2018-12-14T11:46:16.963Z,1017.24
2018-12-14T11:47:18.286Z,1017.30
2018-12-14T11:48:16.935Z,1017.24
2018-12-14T11:49:16.923Z,1017.22
2018-12-14T11:50:16.917Z,1017.25
2018-12-14T11:51:16.922Z,1017.23
2018-12-14T11:52:16.908Z,1017.22
2018-12-14T11:53:16.909Z,1017.19
2018-12-14T11:54:17.547Z,1017.16
2018-12-14T11:55:16.887Z,1017.13
2018-12-14T11:56:16.896Z,1017.14
2018-12-14T11:57:16.876Z,1017.19
2018-12-14T11:58:16.873Z,1017.13
2018-12-14T11:59:16.871Z,1017.12
2018-12-14T12:00:16.868Z,1017.14
2018-12-14T12:01:16.870Z,1017.12
2018-12-14T12:02:16.852Z,1017.15
2018-12-14T12:03:16.841Z,1017.13
2018-12-14T12:04:16.847Z,1017.10
2018-12-14T12:05:16.845Z,1017.10
2018-12-14T12:06:16.825Z,1017.07